createdAt,value
2019-01-09T00:00:01.230Z,2.87
2019-01-09T00:03:04.666Z,5.47
2019-01-09T00:06:08.065Z,4.10
2019-01-09T00:09:11.586Z,5.53
2019-01-09T00:12:15.012Z,4.87
2019-01-09T00:15:18.437Z,5.67
2019-01-09T00:18:21.842Z,4.17
2019-01-09T00:21:25.289Z,4.10
2019-01-09T00:24:28.773Z,3.37
2019-01-09T00:27:32.189Z,5.63
2019-01-09T00:30:35.620Z,4.73
2019-01-09T00:33:39.024Z,8.60
2019-01-09T00:36:42.456Z,3.50
2019-01-09T00:39:45.873Z,4.27
2019-01-09T00:42:49.336Z,6.93
2019-01-09T00:45:52.752Z,5.00
2019-01-09T00:48:56.184Z,2.17
2019-01-09T00:51:59.622Z,3.97
2019-01-09T00:55:03.017Z,3.37
2019-01-09T00:58:06.513Z,5.53
2019-01-09T01:01:10.021Z,4.90
2019-01-09T01:04:28.092Z,6.27
2019-01-09T01:07:54.925Z,7.20
2019-01-09T01:11:21.762Z,3.87
2019-01-09T01:14:59.457Z,5.33
2019-01-09T01:18:22.080Z,6.03
2019-01-09T01:21:37.425Z,2.90
2019-01-09T01:25:09.508Z,3.13
2019-01-09T01:28:26.429Z,8.20
2019-01-09T01:31:35.624Z,4.30
2019-01-09T01:34:51.037Z,5.27
2019-01-09T01:38:11.724Z,5.53
2019-01-09T01:41:20.862Z,6.10
2019-01-09T01:44:36.192Z,3.93
2019-01-09T01:47:45.452Z,4.80
2019-01-09T01:51:12.569Z,4.67
2019-01-09T01:54:44.468Z,4.23
2019-01-09T01:57:56.942Z,4.80
2019-01-09T02:01:12.039Z,6.23
2019-01-09T02:04:27.176Z,3.47
2019-01-09T02:07:36.629Z,2.50
2019-01-09T02:10:54.752Z,2.13
2019-01-09T02:14:24.928Z,4.10
2019-01-09T02:17:33.884Z,4.40
2019-01-09T02:20:43.331Z,4.20
2019-01-09T02:24:21.400Z,8.10
2019-01-09T02:27:33.067Z,6.60
2019-01-09T02:30:54.337Z,3.20
2019-01-09T02:33:57.766Z,6.77
2019-01-09T02:37:01.183Z,7.03
2019-01-09T02:40:05.275Z,2.47
2019-01-09T02:43:08.673Z,9.50
2019-01-09T02:46:12.112Z,3.77
2019-01-09T02:49:15.530Z,5.60
2019-01-09T02:52:18.953Z,5.37
2019-01-09T02:55:22.356Z,4.27
2019-01-09T02:58:25.864Z,5.47
2019-01-09T03:01:29.284Z,3.50
2019-01-09T03:04:32.726Z,5.23
2019-01-09T03:07:36.228Z,4.07
2019-01-09T03:10:39.658Z,5.37
2019-01-09T03:13:43.081Z,3.70
2019-01-09T03:16:46.485Z,4.40
2019-01-09T03:19:49.921Z,5.53
2019-01-09T03:22:53.344Z,7.97
2019-01-09T03:25:56.773Z,6.63
2019-01-09T03:29:00.207Z,5.87
2019-01-09T03:32:03.917Z,7.97
2019-01-09T03:35:07.437Z,4.10
2019-01-09T03:38:10.848Z,5.97
2019-01-09T03:41:14.284Z,3.80
2019-01-09T03:44:17.772Z,7.00
2019-01-09T03:47:21.212Z,4.27
2019-01-09T03:50:24.633Z,5.50
2019-01-09T03:53:28.065Z,6.47
2019-01-09T03:56:31.470Z,3.53
2019-01-09T03:59:34.901Z,3.10
2019-01-09T04:02:38.309Z,6.70
2019-01-09T04:05:41.744Z,6.40
2019-01-09T04:08:45.150Z,3.57
2019-01-09T04:11:48.581Z,3.97
2019-01-09T04:14:51.998Z,6.93
2019-01-09T04:17:55.417Z,5.87
2019-01-09T04:20:58.837Z,11.43
2019-01-09T04:24:02.264Z,7.80
2019-01-09T04:27:05.664Z,5.00
2019-01-09T04:30:09.093Z,4.13
2019-01-09T04:33:12.506Z,5.93
2019-01-09T04:36:15.937Z,8.07
2019-01-09T04:39:19.344Z,5.00
2019-01-09T04:42:22.777Z,5.17
2019-01-09T04:45:26.185Z,5.50
2019-01-09T04:48:29.616Z,5.10
2019-01-09T04:51:33.074Z,4.33
2019-01-09T04:54:36.507Z,5.50
2019-01-09T04:57:39.933Z,4.30
2019-01-09T05:00:43.354Z,5.23
2019-01-09T05:03:46.782Z,6.97
2019-01-09T05:06:50.189Z,7.83
2019-01-09T05:09:53.791Z,3.67
2019-01-09T05:12:57.313Z,7.20
2019-01-09T05:16:00.733Z,5.03
2019-01-09T05:19:04.144Z,3.20
2019-01-09T05:22:07.575Z,4.70
2019-01-09T05:25:10.989Z,2.53
2019-01-09T05:28:14.445Z,5.03
2019-01-09T05:31:17.860Z,5.70
2019-01-09T05:34:21.287Z,4.17
2019-01-09T05:37:24.726Z,5.87
2019-01-09T05:40:28.128Z,4.17
2019-01-09T05:43:31.565Z,4.17
2019-01-09T05:46:34.997Z,2.93
2019-01-09T05:49:38.427Z,5.07
2019-01-09T05:52:41.847Z,3.17
2019-01-09T05:55:45.311Z,5.23
2019-01-09T05:58:48.698Z,2.53
2019-01-09T06:01:52.128Z,5.00
2019-01-09T06:04:55.536Z,5.10
2019-01-09T06:07:58.978Z,9.07
2019-01-09T06:11:02.384Z,6.93
2019-01-09T06:14:05.817Z,5.10
2019-01-09T06:17:09.250Z,4.03
2019-01-09T06:20:12.694Z,3.97
2019-01-09T06:23:16.104Z,2.30
2019-01-09T06:26:19.529Z,2.70
2019-01-09T06:29:22.964Z,2.37
2019-01-09T06:32:26.364Z,4.20
2019-01-09T06:35:29.797Z,4.13
2019-01-09T06:38:33.200Z,4.73
2019-01-09T06:41:36.629Z,4.57
2019-01-09T06:44:40.041Z,3.60
2019-01-09T06:47:43.460Z,5.63
2019-01-09T06:50:46.873Z,4.53
2019-01-09T06:53:50.306Z,5.20
2019-01-09T06:56:53.723Z,4.90
2019-01-09T06:59:57.138Z,3.70
2019-01-09T07:03:00.573Z,3.07
2019-01-09T07:06:03.996Z,2.10
2019-01-09T07:09:07.404Z,2.20
2019-01-09T07:12:10.835Z,7.30
2019-01-09T07:15:14.232Z,3.17
2019-01-09T07:18:17.658Z,2.40
2019-01-09T07:21:21.135Z,4.37
2019-01-09T07:24:24.580Z,2.50
2019-01-09T07:27:28.009Z,3.00
2019-01-09T07:30:31.432Z,2.37
2019-01-09T07:33:34.875Z,2.33
2019-01-09T07:36:38.300Z,3.53
2019-01-09T07:39:41.718Z,3.60
2019-01-09T07:42:45.149Z,1.87
2019-01-09T07:45:48.560Z,3.83
2019-01-09T07:48:52.000Z,4.33
2019-01-09T07:51:55.433Z,2.20
2019-01-09T07:54:58.833Z,3.57
2019-01-09T07:58:02.260Z,1.87
2019-01-09T08:01:05.679Z,3.93
2019-01-09T08:04:09.095Z,6.13
2019-01-09T08:07:12.537Z,4.63
2019-01-09T08:10:15.948Z,2.40
2019-01-09T08:13:19.385Z,5.20
2019-01-09T08:16:22.804Z,3.20
2019-01-09T08:19:26.230Z,3.67
2019-01-09T08:22:29.668Z,2.43
2019-01-09T08:25:33.075Z,5.87
2019-01-09T08:28:36.509Z,3.77
2019-01-09T08:31:39.918Z,5.47
2019-01-09T08:34:43.544Z,4.17
2019-01-09T08:37:47.026Z,2.47
2019-01-09T08:40:50.642Z,3.67
2019-01-09T08:43:54.074Z,4.10
2019-01-09T08:46:57.493Z,4.10
2019-01-09T08:50:00.927Z,2.73
2019-01-09T08:53:04.341Z,3.50
2019-01-09T08:56:07.766Z,2.30
2019-01-09T08:59:11.200Z,5.23
2019-01-09T09:02:14.609Z,3.50
2019-01-09T09:05:18.044Z,3.07
2019-01-09T09:08:21.842Z,2.30
2019-01-09T09:11:25.285Z,3.50
2019-01-09T09:14:28.756Z,5.40
2019-01-09T09:17:32.172Z,3.63
2019-01-09T09:20:35.589Z,3.47
2019-01-09T09:23:39.012Z,1.93
2019-01-09T09:26:42.436Z,4.90
2019-01-09T09:29:45.867Z,3.63
2019-01-09T09:32:49.300Z,2.73
2019-01-09T09:35:52.742Z,2.97
2019-01-09T09:38:56.140Z,5.47
2019-01-09T09:41:59.584Z,5.23
2019-01-09T09:45:03.089Z,2.63
2019-01-09T09:48:06.527Z,1.97
2019-01-09T09:51:09.955Z,4.03
2019-01-09T09:54:13.390Z,5.80
2019-01-09T09:57:16.833Z,2.67
2019-01-09T10:00:21.384Z,1.80
2019-01-09T10:03:24.818Z,2.30
2019-01-09T10:06:28.225Z,2.50
2019-01-09T10:09:31.659Z,5.23
2019-01-09T10:12:35.064Z,2.97
2019-01-09T10:15:38.497Z,7.07
2019-01-09T10:18:41.906Z,4.10
2019-01-09T10:21:45.347Z,3.13
2019-01-09T10:24:48.751Z,5.90
2019-01-09T10:27:52.193Z,4.23
2019-01-09T10:30:55.602Z,3.43
2019-01-09T10:33:59.034Z,7.13
2019-01-09T10:37:02.455Z,1.80
2019-01-09T10:40:09.096Z,5.27
2019-01-09T10:43:12.505Z,5.03
2019-01-09T10:46:15.940Z,3.07
2019-01-09T10:49:19.350Z,3.70
2019-01-09T10:52:22.791Z,3.00
2019-01-09T10:55:26.193Z,5.70
2019-01-09T10:58:29.616Z,5.17
2019-01-09T11:01:33.048Z,4.43
2019-01-09T11:04:36.471Z,3.27
2019-01-09T11:07:39.901Z,4.80
2019-01-09T11:10:43.341Z,5.67
2019-01-09T11:13:46.777Z,6.37
2019-01-09T11:16:50.184Z,3.13
2019-01-09T11:19:53.612Z,4.00
2019-01-09T11:22:57.040Z,3.73
2019-01-09T11:26:00.455Z,8.10
2019-01-09T11:29:03.898Z,4.93
2019-01-09T11:32:07.303Z,7.33
2019-01-09T11:35:12.777Z,6.40
2019-01-09T11:38:16.181Z,2.93
2019-01-09T11:41:19.629Z,8.20
2019-01-09T11:44:23.045Z,4.10
2019-01-09T11:47:26.476Z,7.70
2019-01-09T11:50:29.925Z,8.90
2019-01-09T11:53:33.340Z,10.73
2019-01-09T11:56:36.770Z,3.77
2019-01-09T11:59:40.333Z,4.40
2019-01-09T12:02:43.809Z,4.27
2019-01-09T12:05:47.227Z,6.50
2019-01-09T12:08:50.654Z,4.07
2019-01-09T12:11:54.058Z,5.40
2019-01-09T12:14:57.502Z,6.77
2019-01-09T12:18:01.000Z,4.20
2019-01-09T12:21:04.664Z,4.63
2019-01-09T12:24:08.060Z,6.40
2019-01-09T12:27:11.492Z,6.40
2019-01-09T12:30:20.880Z,7.00
2019-01-09T12:33:24.283Z,6.67
2019-01-09T12:36:27.708Z,6.40
2019-01-09T12:39:31.136Z,7.57
2019-01-09T12:42:34.548Z,4.37
2019-01-09T12:45:37.976Z,4.90
2019-01-09T12:48:41.405Z,4.37
2019-01-09T12:51:44.823Z,5.43
2019-01-09T12:54:48.256Z,5.73
2019-01-09T12:57:51.662Z,5.30
2019-01-09T13:00:55.100Z,10.37
2019-01-09T13:03:58.528Z,4.03
2019-01-09T13:07:01.942Z,4.37
2019-01-09T13:10:08.508Z,6.23
2019-01-09T13:13:11.939Z,4.10
2019-01-09T13:16:15.344Z,3.57
2019-01-09T13:19:18.788Z,4.17
2019-01-09T13:22:22.188Z,5.50
2019-01-09T13:25:25.609Z,4.73
2019-01-09T13:28:29.021Z,6.80
2019-01-09T13:31:32.447Z,5.40
2019-01-09T13:34:35.853Z,3.97
2019-01-09T13:37:39.270Z,5.57
2019-01-09T13:40:42.704Z,5.70
2019-01-09T13:43:46.127Z,4.70
2019-01-09T13:46:49.552Z,9.17
2019-01-09T13:49:52.963Z,8.00
2019-01-09T13:52:56.401Z,8.53
2019-01-09T13:55:59.852Z,4.70
2019-01-09T13:59:03.284Z,4.33
2019-01-09T14:02:06.700Z,4.93
2019-01-09T14:05:10.574Z,3.60
2019-01-09T14:08:14.073Z,5.17
2019-01-09T14:11:17.505Z,6.53
2019-01-09T14:14:20.943Z,9.73
2019-01-09T14:17:24.374Z,4.90
2019-01-09T14:20:27.816Z,3.87
2019-01-09T14:23:32.063Z,4.33
2019-01-09T14:26:35.493Z,6.50
2019-01-09T14:29:38.903Z,5.43
2019-01-09T14:32:42.339Z,6.10
2019-01-09T14:35:45.749Z,8.30
2019-01-09T14:38:49.192Z,6.73
2019-01-09T14:41:52.626Z,4.80
2019-01-09T14:44:56.068Z,4.63
2019-01-09T14:47:59.548Z,9.63
2019-01-09T14:51:02.987Z,7.30
2019-01-09T14:54:06.392Z,7.87
2019-01-09T14:57:09.828Z,7.63
2019-01-09T15:00:16.364Z,5.53
2019-01-09T15:03:19.769Z,6.63
2019-01-09T15:06:23.210Z,7.37
2019-01-09T15:09:26.623Z,7.83
2019-01-09T15:12:30.081Z,6.33
2019-01-09T15:15:33.501Z,10.63
2019-01-09T15:18:36.912Z,5.70
2019-01-09T15:21:40.335Z,8.97
2019-01-09T15:24:43.766Z,5.53
2019-01-09T15:27:47.241Z,7.60
2019-01-09T15:30:50.677Z,13.57
2019-01-09T15:33:54.092Z,6.10
2019-01-09T15:36:57.515Z,5.13
2019-01-09T15:40:05.652Z,7.70
2019-01-09T15:43:06.076Z,4.20
2019-01-09T15:46:09.513Z,10.23
2019-01-09T15:49:12.988Z,4.50
2019-01-09T15:52:16.421Z,5.57
2019-01-09T15:55:20.126Z,6.57
2019-01-09T15:58:23.565Z,7.67
2019-01-09T16:01:26.991Z,5.43
2019-01-09T16:04:30.452Z,6.50
2019-01-09T16:07:33.912Z,6.37
2019-01-09T16:10:37.369Z,6.23
2019-01-09T16:13:40.799Z,8.63
2019-01-09T16:16:44.209Z,9.27
2019-01-09T16:19:47.641Z,6.63
2019-01-09T16:22:51.077Z,5.07
2019-01-09T16:25:54.480Z,7.57
2019-01-09T16:28:57.941Z,7.37
2019-01-09T16:32:01.348Z,7.57
2019-01-09T16:35:07.111Z,8.20
2019-01-09T16:38:10.554Z,8.40
2019-01-09T16:41:13.960Z,8.70
2019-01-09T16:44:17.409Z,11.07
2019-01-09T16:47:20.837Z,7.10
2019-01-09T16:50:25.403Z,10.83
2019-01-09T16:53:28.840Z,12.23
2019-01-09T16:56:32.281Z,7.57
2019-01-09T16:59:35.765Z,10.17
2019-01-09T17:02:41.181Z,8.90
2019-01-09T17:05:44.466Z,6.10
2019-01-09T17:08:47.965Z,7.40
2019-01-09T17:11:51.683Z,12.90
2019-01-09T17:14:55.101Z,9.30
2019-01-09T17:17:58.517Z,10.03
2019-01-09T17:21:01.941Z,9.13
2019-01-09T17:24:05.368Z,8.67
2019-01-09T17:27:08.891Z,10.20
2019-01-09T17:30:18.636Z,8.63
2019-01-09T17:33:22.065Z,8.73
2019-01-09T17:36:25.480Z,9.50
2019-01-09T17:39:28.912Z,9.47
2019-01-09T17:42:32.324Z,7.80
2019-01-09T17:45:36.132Z,8.87
2019-01-09T17:48:39.552Z,6.90
2019-01-09T17:51:42.964Z,10.43
2019-01-09T17:54:46.464Z,10.90
2019-01-09T17:57:49.907Z,7.20
2019-01-09T18:00:53.312Z,10.23
2019-01-09T18:03:56.748Z,7.60
2019-01-09T18:07:00.344Z,10.17
2019-01-09T18:10:06.574Z,8.80
2019-01-09T18:13:09.995Z,8.87
2019-01-09T18:16:13.396Z,8.30
2019-01-09T18:19:16.820Z,9.37
2019-01-09T18:22:20.253Z,10.40
2019-01-09T18:25:28.717Z,11.33
2019-01-09T18:28:32.158Z,11.20
2019-01-09T18:31:41.181Z,9.90
2019-01-09T18:34:44.832Z,10.80
2019-01-09T18:37:54.231Z,11.07
2019-01-09T18:41:06.576Z,10.07
2019-01-09T18:44:24.996Z,12.10
2019-01-09T18:47:37.224Z,10.43
2019-01-09T18:50:59.902Z,8.47
2019-01-09T18:54:03.328Z,8.63
2019-01-09T18:57:06.828Z,8.23
2019-01-09T19:00:18.890Z,9.37
2019-01-09T19:03:22.319Z,9.50
2019-01-09T19:06:34.762Z,11.87
2019-01-09T19:09:30.876Z,9.93
2019-01-09T19:12:34.304Z,10.27
2019-01-09T19:15:37.739Z,8.70
2019-01-09T19:18:41.180Z,10.43
2019-01-09T19:21:44.590Z,7.93
2019-01-09T19:24:48.019Z,8.13
2019-01-09T19:27:51.435Z,6.53
2019-01-09T19:30:54.864Z,7.87
2019-01-09T19:33:58.300Z,8.13
2019-01-09T19:37:01.708Z,7.70
2019-01-09T19:40:08.277Z,7.90
2019-01-09T19:43:11.705Z,9.57
2019-01-09T19:46:15.116Z,13.47
2019-01-09T19:49:18.549Z,8.60
2019-01-09T19:52:22.027Z,9.33
2019-01-09T19:55:25.540Z,8.17
2019-01-09T19:58:28.992Z,10.37
2019-01-09T20:01:32.392Z,9.33
2019-01-09T20:04:35.897Z,10.37
2019-01-09T20:07:39.324Z,9.90
2019-01-09T20:10:42.816Z,9.20
2019-01-09T20:13:46.235Z,8.80
2019-01-09T20:16:49.686Z,8.57
2019-01-09T20:19:53.251Z,8.87
2019-01-09T20:22:56.711Z,10.13
2019-01-09T20:26:00.196Z,8.93
2019-01-09T20:29:03.762Z,8.83
2019-01-09T20:32:07.298Z,7.77
2019-01-09T20:35:10.900Z,11.93
2019-01-09T20:38:14.381Z,10.53
2019-01-09T20:41:17.862Z,9.63
2019-01-09T20:44:21.376Z,8.27
2019-01-09T20:47:24.857Z,7.57
2019-01-09T20:50:29.051Z,9.00
2019-01-09T20:53:32.539Z,9.07
2019-01-09T20:56:36.055Z,12.67
2019-01-09T20:59:39.496Z,11.73
2019-01-09T21:02:42.993Z,10.97
2019-01-09T21:05:46.612Z,9.23
2019-01-09T21:08:59.300Z,9.07
2019-01-09T21:11:55.240Z,6.97
2019-01-09T21:14:58.696Z,7.20
2019-01-09T21:18:02.201Z,9.03
2019-01-09T21:21:06.025Z,6.00
2019-01-09T21:24:09.465Z,5.93
2019-01-09T21:27:12.905Z,5.23
2019-01-09T21:30:22.231Z,7.13
2019-01-09T21:33:25.660Z,6.00
2019-01-09T21:36:29.103Z,6.10
2019-01-09T21:39:32.505Z,7.03
2019-01-09T21:42:35.940Z,5.30
2019-01-09T21:45:39.348Z,5.97
2019-01-09T21:48:42.836Z,5.30
2019-01-09T21:51:46.254Z,7.93
2019-01-09T21:54:49.709Z,7.00
2019-01-09T21:57:53.132Z,5.73
2019-01-09T22:00:56.564Z,8.17
2019-01-09T22:03:59.992Z,7.13
2019-01-09T22:07:03.511Z,8.33
2019-01-09T22:10:09.988Z,7.37
2019-01-09T22:13:13.491Z,6.53
2019-01-09T22:16:16.896Z,5.27
2019-01-09T22:19:20.338Z,5.30
2019-01-09T22:22:23.731Z,5.90
2019-01-09T22:25:27.148Z,7.77
2019-01-09T22:28:30.565Z,5.03
2019-01-09T22:31:33.996Z,8.73
2019-01-09T22:34:37.407Z,4.73
2019-01-09T22:37:40.901Z,5.13
2019-01-09T22:40:44.321Z,5.50
2019-01-09T22:43:47.744Z,5.40
2019-01-09T22:46:51.252Z,8.90
2019-01-09T22:49:54.660Z,8.37
2019-01-09T22:52:58.084Z,5.70
2019-01-09T22:56:01.520Z,5.57
2019-01-09T22:59:04.942Z,6.83
2019-01-09T23:02:08.600Z,6.00
2019-01-09T23:05:12.005Z,7.40
2019-01-09T23:08:15.443Z,6.00
2019-01-09T23:11:18.849Z,6.00
2019-01-09T23:14:22.273Z,9.37
2019-01-09T23:17:25.688Z,12.40
2019-01-09T23:20:29.239Z,6.37
2019-01-09T23:23:32.669Z,7.73
2019-01-09T23:26:36.100Z,7.73
2019-01-09T23:29:39.508Z,4.77
2019-01-09T23:32:43.018Z,7.73
2019-01-09T23:35:46.561Z,6.83
2019-01-09T23:38:49.992Z,8.57
2019-01-09T23:41:53.401Z,10.07
2019-01-09T23:44:56.832Z,6.33
2019-01-09T23:48:00.236Z,5.40
2019-01-09T23:51:03.673Z,7.20
2019-01-09T23:54:07.094Z,6.40
2019-01-09T23:57:10.545Z,7.10
